createdAt,value
2018-11-03T00:00:01.744Z,75.00
2018-11-03T00:02:32.879Z,74.74
2018-11-03T00:05:03.853Z,74.43
2018-11-03T00:07:34.765Z,74.10
2018-11-03T00:10:06.090Z,74.70
2018-11-03T00:12:38.269Z,74.38
2018-11-03T00:15:09.553Z,74.08
2018-11-03T00:17:40.505Z,74.16
2018-11-03T00:20:11.385Z,74.52
2018-11-03T00:22:42.257Z,74.78
2018-11-03T00:25:13.225Z,74.42
2018-11-03T00:27:44.490Z,74.49
2018-11-03T00:30:15.475Z,74.80
2018-11-03T00:32:46.462Z,74.56
2018-11-03T00:35:17.710Z,74.69
2018-11-03T00:37:48.604Z,74.65
2018-11-03T00:40:19.772Z,74.54
2018-11-03T00:42:50.772Z,74.48
2018-11-03T00:45:21.840Z,74.89
2018-11-03T00:47:52.780Z,75.03
2018-11-03T00:50:23.685Z,74.55
2018-11-03T00:52:54.642Z,75.05
2018-11-03T00:55:25.565Z,75.08
2018-11-03T00:57:56.511Z,75.03
2018-11-03T01:00:27.631Z,74.80
2018-11-03T01:02:58.697Z,74.74
2018-11-03T01:05:29.837Z,74.77
2018-11-03T01:08:00.736Z,74.76
2018-11-03T01:10:31.699Z,75.10
2018-11-03T01:13:02.694Z,75.43
2018-11-03T01:15:33.632Z,74.91
2018-11-03T01:18:04.641Z,74.88
2018-11-03T01:20:35.694Z,74.81
2018-11-03T01:23:06.684Z,75.13
2018-11-03T01:25:37.676Z,74.90
2018-11-03T01:28:08.669Z,74.81
2018-11-03T01:30:39.489Z,74.77
2018-11-03T01:33:10.535Z,75.02
2018-11-03T01:35:41.494Z,74.75
2018-11-03T01:38:12.417Z,75.27
2018-11-03T01:40:43.791Z,75.25
2018-11-03T01:43:15.376Z,75.06
2018-11-03T01:45:46.795Z,74.59
2018-11-03T01:48:17.720Z,74.56
2018-11-03T01:50:48.698Z,74.90
2018-11-03T01:53:19.856Z,74.82
2018-11-03T01:55:51.016Z,75.23
2018-11-03T01:58:21.891Z,75.39
2018-11-03T02:00:53.213Z,75.68
2018-11-03T02:03:24.649Z,76.07
2018-11-03T02:05:55.531Z,76.81
2018-11-03T02:08:27.049Z,77.10
2018-11-03T02:10:57.934Z,77.22
2018-11-03T02:13:28.879Z,76.96
2018-11-03T02:15:59.766Z,76.97
2018-11-03T02:18:30.756Z,76.97
2018-11-03T02:21:01.658Z,77.11
2018-11-03T02:23:32.476Z,77.93
2018-11-03T02:26:03.365Z,77.95
2018-11-03T02:28:34.472Z,78.03
2018-11-03T02:31:05.951Z,77.81
2018-11-03T02:33:36.886Z,77.95
2018-11-03T02:36:07.860Z,78.65
2018-11-03T02:38:38.724Z,78.68
2018-11-03T02:41:09.639Z,78.74
2018-11-03T02:43:40.782Z,79.09
2018-11-03T02:46:11.640Z,78.93
2018-11-03T02:48:43.032Z,78.57
2018-11-03T02:51:13.956Z,78.27
2018-11-03T02:53:44.765Z,77.95
2018-11-03T02:56:15.925Z,77.99
2018-11-03T02:58:47.138Z,77.31
2018-11-03T03:01:18.269Z,77.22
2018-11-03T03:03:49.414Z,77.12
2018-11-03T03:06:20.533Z,77.02
2018-11-03T03:08:52.008Z,77.17
2018-11-03T03:11:22.890Z,77.11
2018-11-03T03:13:54.022Z,77.46
2018-11-03T03:16:24.943Z,77.66
2018-11-03T03:18:55.896Z,77.72
2018-11-03T03:21:26.992Z,77.37
2018-11-03T03:23:57.893Z,77.54
2018-11-03T03:26:28.737Z,77.66
2018-11-03T03:28:59.717Z,77.65
2018-11-03T03:31:30.806Z,77.61
2018-11-03T03:34:02.202Z,77.35
2018-11-03T03:36:33.348Z,77.54
2018-11-03T03:39:04.318Z,77.03
2018-11-03T03:41:35.430Z,77.43
2018-11-03T03:44:06.439Z,77.35
2018-11-03T03:46:37.364Z,77.44
2018-11-03T03:49:08.550Z,77.67
2018-11-03T03:51:39.444Z,77.39
2018-11-03T03:54:10.310Z,77.76
2018-11-03T03:56:41.157Z,77.52
2018-11-03T03:59:12.073Z,77.62
2018-11-03T04:01:43.209Z,77.49
2018-11-03T04:04:14.436Z,77.68
2018-11-03T04:06:45.370Z,77.67
2018-11-03T04:09:16.221Z,77.84
2018-11-03T04:11:48.362Z,77.61
2018-11-03T04:14:19.565Z,78.36
2018-11-03T04:16:50.539Z,77.87
2018-11-03T04:19:21.412Z,77.72
2018-11-03T04:21:52.377Z,78.09
2018-11-03T04:24:23.325Z,77.97
2018-11-03T04:26:54.664Z,78.02
2018-11-03T04:29:25.598Z,77.68
2018-11-03T04:31:56.489Z,77.66
2018-11-03T04:34:27.447Z,77.75
2018-11-03T04:36:58.456Z,77.90
2018-11-03T04:39:29.433Z,77.86
2018-11-03T04:42:00.339Z,77.57
2018-11-03T04:44:31.212Z,77.81
2018-11-03T04:47:02.406Z,78.05
2018-11-03T04:49:33.342Z,78.03
2018-11-03T04:52:04.212Z,78.18
2018-11-03T04:54:35.151Z,77.88
2018-11-03T04:57:05.987Z,78.57
2018-11-03T04:59:36.933Z,78.28
2018-11-03T05:02:07.904Z,78.51
2018-11-03T05:04:39.097Z,78.50
2018-11-03T05:07:09.993Z,78.45
2018-11-03T05:09:40.931Z,78.15
2018-11-03T05:12:11.874Z,78.41
2018-11-03T05:14:42.802Z,78.29
2018-11-03T05:17:13.690Z,78.67
2018-11-03T05:19:44.896Z,78.30
2018-11-03T05:22:16.368Z,78.50
2018-11-03T05:24:47.285Z,78.53
2018-11-03T05:27:18.166Z,79.01
2018-11-03T05:29:49.209Z,78.63
2018-11-03T05:32:20.102Z,78.75
2018-11-03T05:34:51.054Z,78.37
2018-11-03T05:37:21.990Z,78.77
2018-11-03T05:39:52.853Z,78.71
2018-11-03T05:42:24.010Z,78.61
2018-11-03T05:44:55.089Z,78.40
2018-11-03T05:47:26.484Z,78.62
2018-11-03T05:49:57.424Z,78.35
2018-11-03T05:52:28.480Z,78.56
2018-11-03T05:55:00.113Z,78.71
2018-11-03T05:57:31.099Z,78.62
2018-11-03T06:00:02.087Z,78.65
2018-11-03T06:02:33.483Z,78.43
2018-11-03T06:05:04.473Z,78.45
2018-11-03T06:07:35.604Z,78.48
2018-11-03T06:10:07.492Z,78.82
2018-11-03T06:12:38.965Z,78.78
2018-11-03T06:15:09.946Z,78.70
2018-11-03T06:17:41.280Z,78.67
2018-11-03T06:20:12.285Z,78.74
2018-11-03T06:22:43.408Z,78.68
2018-11-03T06:25:14.406Z,79.01
2018-11-03T06:27:45.452Z,78.76
2018-11-03T06:30:16.354Z,78.56
2018-11-03T06:32:48.227Z,78.96
2018-11-03T06:35:19.268Z,79.10
2018-11-03T06:37:50.499Z,79.04
2018-11-03T06:40:21.683Z,78.91
2018-11-03T06:42:52.596Z,78.87
2018-11-03T06:45:23.513Z,78.50
2018-11-03T06:47:54.467Z,79.11
2018-11-03T06:50:25.407Z,78.51
2018-11-03T06:52:59.640Z,78.30
2018-11-03T06:55:30.888Z,78.57
2018-11-03T06:58:01.947Z,78.44
2018-11-03T07:00:32.902Z,77.73
2018-11-03T07:03:03.933Z,77.62
2018-11-03T07:05:34.933Z,77.59
2018-11-03T07:08:06.125Z,77.60
2018-11-03T07:10:37.061Z,77.62
2018-11-03T07:13:08.220Z,77.33
2018-11-03T07:15:39.456Z,76.88
2018-11-03T07:18:10.491Z,76.68
2018-11-03T07:20:41.435Z,77.08
2018-11-03T07:23:12.747Z,76.33
2018-11-03T07:25:44.025Z,76.55
2018-11-03T07:28:15.060Z,76.00
2018-11-03T07:30:46.124Z,75.13
2018-11-03T07:33:17.057Z,75.29
2018-11-03T07:35:47.989Z,75.33
2018-11-03T07:38:18.893Z,75.30
2018-11-03T07:40:49.946Z,74.89
2018-11-03T07:43:20.865Z,74.67
2018-11-03T07:45:51.933Z,75.00
2018-11-03T07:48:23.062Z,75.12
2018-11-03T07:50:54.380Z,74.99
2018-11-03T07:53:25.448Z,75.04
2018-11-03T07:55:56.876Z,75.08
2018-11-03T07:58:27.925Z,74.89
2018-11-03T08:00:59.214Z,74.14
2018-11-03T08:03:30.198Z,73.94
2018-11-03T08:06:01.397Z,73.53
2018-11-03T08:08:32.349Z,73.52
2018-11-03T08:11:03.502Z,73.76
2018-11-03T08:13:34.512Z,73.55
2018-11-03T08:16:05.766Z,73.74
2018-11-03T08:18:36.792Z,72.62
2018-11-03T08:21:08.049Z,72.53
2018-11-03T08:23:39.278Z,72.39
2018-11-03T08:26:10.534Z,71.96
2018-11-03T08:28:41.709Z,72.15
2018-11-03T08:31:12.738Z,71.52
2018-11-03T08:33:43.650Z,71.05
2018-11-03T08:36:15.282Z,71.27
2018-11-03T08:38:46.579Z,71.17
2018-11-03T08:41:17.729Z,71.00
2018-11-03T08:43:49.495Z,70.50
2018-11-03T08:46:20.763Z,69.42
2018-11-03T08:48:52.705Z,70.02
2018-11-03T08:51:24.026Z,69.63
2018-11-03T08:53:55.365Z,69.45
2018-11-03T08:56:26.732Z,70.13
2018-11-03T08:58:57.683Z,68.97
2018-11-03T09:01:28.910Z,70.26
2018-11-03T09:04:00.259Z,70.04
2018-11-03T09:06:31.375Z,69.87
2018-11-03T09:09:02.417Z,69.26
2018-11-03T09:11:33.504Z,69.29
2018-11-03T09:14:04.880Z,68.90
2018-11-03T09:16:36.158Z,69.36
2018-11-03T09:19:07.296Z,68.39
2018-11-03T09:21:38.719Z,69.04
2018-11-03T09:24:09.587Z,69.17
2018-11-03T09:26:41.136Z,68.58
2018-11-03T09:29:12.031Z,68.85
2018-11-03T09:31:43.059Z,68.39
2018-11-03T09:34:14.141Z,68.83
2018-11-03T09:36:45.072Z,68.20
2018-11-03T09:39:16.898Z,68.89
2018-11-03T09:41:48.032Z,68.45
2018-11-03T09:44:19.303Z,67.70
2018-11-03T09:46:50.286Z,68.35
2018-11-03T09:49:21.504Z,68.35
2018-11-03T09:51:52.752Z,67.80
2018-11-03T09:54:23.724Z,67.51
2018-11-03T09:56:55.001Z,67.01
2018-11-03T09:59:26.107Z,66.03
2018-11-03T10:01:57.825Z,66.19
2018-11-03T10:04:28.766Z,65.51
2018-11-03T10:06:59.701Z,65.05
2018-11-03T10:09:30.883Z,65.71
2018-11-03T10:12:02.277Z,64.91
2018-11-03T10:14:33.960Z,63.73
2018-11-03T10:17:05.097Z,65.30
2018-11-03T10:19:36.074Z,65.47
2018-11-03T10:22:07.520Z,64.14
2018-11-03T10:24:39.554Z,64.95
2018-11-03T10:27:10.639Z,64.82
2018-11-03T10:29:41.663Z,65.82
2018-11-03T10:32:12.593Z,64.95
2018-11-03T10:34:44.239Z,65.39
2018-11-03T10:37:15.548Z,64.87
2018-11-03T10:39:46.460Z,66.42
2018-11-03T10:42:17.501Z,65.71
2018-11-03T10:44:48.371Z,66.76
2018-11-03T10:47:19.407Z,66.50
2018-11-03T10:49:50.438Z,67.37
2018-11-03T10:52:21.867Z,68.22
2018-11-03T10:54:52.889Z,67.99
2018-11-03T10:57:24.182Z,67.90
2018-11-03T10:59:55.136Z,68.07
2018-11-03T11:03:02.886Z,67.05
2018-11-03T11:05:51.844Z,67.55
2018-11-03T11:08:40.147Z,67.73
2018-11-03T11:11:28.636Z,67.80
2018-11-03T11:13:59.984Z,67.85
2018-11-03T11:16:31.030Z,67.97
2018-11-03T11:19:02.138Z,68.86
2018-11-03T11:21:33.374Z,68.34
2018-11-03T11:24:04.843Z,68.94
2018-11-03T11:26:36.001Z,68.62
2018-11-03T11:29:07.111Z,69.34
2018-11-03T11:31:38.548Z,69.58
2018-11-03T11:34:09.465Z,70.00
2018-11-03T11:36:40.543Z,69.91
2018-11-03T11:39:11.531Z,69.50
2018-11-03T11:41:42.771Z,70.46
2018-11-03T11:44:13.742Z,69.61
2018-11-03T11:46:44.597Z,69.97
2018-11-03T11:49:15.657Z,70.48
2018-11-03T11:51:46.513Z,70.05
2018-11-03T11:54:18.239Z,70.64
2018-11-03T11:56:49.093Z,70.95
2018-11-03T11:59:20.206Z,71.32
2018-11-03T12:01:51.325Z,70.54
2018-11-03T12:04:22.480Z,70.70
2018-11-03T12:06:53.388Z,70.06
2018-11-03T12:09:24.314Z,69.49
2018-11-03T12:11:55.204Z,70.11
2018-11-03T12:14:26.059Z,70.40
2018-11-03T12:16:56.989Z,70.36
2018-11-03T12:19:28.379Z,70.26
2018-11-03T12:21:59.264Z,69.78
2018-11-03T12:24:30.146Z,69.58
2018-11-03T12:27:01.038Z,69.26
2018-11-03T12:29:31.900Z,69.73
2018-11-03T12:32:02.753Z,70.15
2018-11-03T12:34:33.613Z,69.40
2018-11-03T12:37:04.486Z,69.97
2018-11-03T12:39:35.386Z,69.65
2018-11-03T12:42:06.999Z,69.75
2018-11-03T12:44:37.877Z,69.90
2018-11-03T12:47:08.831Z,70.05
2018-11-03T12:49:40.236Z,69.80
2018-11-03T12:52:11.093Z,69.72
2018-11-03T12:54:45.755Z,69.71
2018-11-03T12:57:16.922Z,69.81
2018-11-03T12:59:48.214Z,70.17
2018-11-03T13:02:19.801Z,70.24
2018-11-03T13:04:51.855Z,69.74
2018-11-03T13:07:22.702Z,70.15
2018-11-03T13:09:53.902Z,69.73
2018-11-03T13:12:24.714Z,69.88
2018-11-03T13:14:55.571Z,69.79
2018-11-03T13:17:26.670Z,69.32
2018-11-03T13:19:57.845Z,69.35
2018-11-03T13:22:28.753Z,68.95
2018-11-03T13:24:59.941Z,68.85
2018-11-03T13:27:30.809Z,69.14
2018-11-03T13:30:01.700Z,68.93
2018-11-03T13:32:32.561Z,70.01
2018-11-03T13:35:03.783Z,69.77
2018-11-03T13:37:34.571Z,69.07
2018-11-03T13:40:05.574Z,69.39
2018-11-03T13:42:36.722Z,70.31
2018-11-03T13:45:11.043Z,70.44
2018-11-03T13:47:42.385Z,70.40
2018-11-03T13:50:17.695Z,70.66
2018-11-03T13:52:49.389Z,71.70
2018-11-03T13:55:20.580Z,71.47
2018-11-03T13:57:51.955Z,71.30
2018-11-03T14:00:22.816Z,70.36
2018-11-03T14:02:53.714Z,70.27
2018-11-03T14:05:24.669Z,70.28
2018-11-03T14:07:56.559Z,70.08
2018-11-03T14:10:27.463Z,71.15
2018-11-03T14:12:58.321Z,71.11
2018-11-03T14:15:29.521Z,71.54
2018-11-03T14:18:00.796Z,71.23
2018-11-03T14:20:31.638Z,71.40
2018-11-03T14:23:02.501Z,70.60
2018-11-03T14:25:33.735Z,71.37
2018-11-03T14:28:04.651Z,71.93
2018-11-03T14:30:35.484Z,71.89
2018-11-03T14:33:06.734Z,72.16
2018-11-03T14:35:38.007Z,72.04
2018-11-03T14:38:08.905Z,72.09
2018-11-03T14:40:39.841Z,72.07
2018-11-03T14:43:10.733Z,70.82
2018-11-03T14:45:41.640Z,71.71
2018-11-03T14:48:12.575Z,71.47
2018-11-03T14:50:43.793Z,71.54
2018-11-03T14:53:14.683Z,72.22
2018-11-03T14:55:45.567Z,72.88
2018-11-03T14:58:16.424Z,73.71
2018-11-03T15:00:47.296Z,73.66
2018-11-03T15:03:18.173Z,73.69
2018-11-03T15:05:49.131Z,73.76
2018-11-03T15:08:20.552Z,74.48
2018-11-03T15:10:51.974Z,74.92
2018-11-03T15:13:23.164Z,74.63
2018-11-03T15:15:54.340Z,74.91
2018-11-03T15:18:25.290Z,75.14
2018-11-03T15:20:56.217Z,75.02
2018-11-03T15:23:27.413Z,75.11
2018-11-03T15:25:58.398Z,74.96
2018-11-03T15:28:29.475Z,75.03
2018-11-03T15:31:00.347Z,75.15
2018-11-03T15:33:31.703Z,76.18
2018-11-03T15:36:03.303Z,76.18
2018-11-03T15:38:34.501Z,76.25
2018-11-03T15:41:05.762Z,76.94
2018-11-03T15:43:37.048Z,77.22
2018-11-03T15:46:08.406Z,76.92
2018-11-03T15:48:40.183Z,77.16
2018-11-03T15:51:11.193Z,77.29
2018-11-03T15:53:42.111Z,77.28
2018-11-03T15:56:13.973Z,77.45
2018-11-03T15:58:45.887Z,77.84
2018-11-03T16:01:17.034Z,77.86
2018-11-03T16:03:48.225Z,77.22
2018-11-03T16:06:19.142Z,77.49
2018-11-03T16:08:50.386Z,77.58
2018-11-03T16:11:21.346Z,77.44
2018-11-03T16:13:52.621Z,76.87
2018-11-03T16:16:23.885Z,76.92
2018-11-03T16:18:54.739Z,77.03
2018-11-03T16:21:25.606Z,77.28
2018-11-03T16:23:57.232Z,77.28
2018-11-03T16:26:28.406Z,77.00
2018-11-03T16:28:59.290Z,76.87
2018-11-03T16:31:30.177Z,76.34
2018-11-03T16:34:01.204Z,75.69
2018-11-03T16:36:32.457Z,75.97
2018-11-03T16:39:03.328Z,77.07
2018-11-03T16:41:34.229Z,77.30
2018-11-03T16:44:05.192Z,77.65
2018-11-03T16:46:36.098Z,78.31
2018-11-03T16:49:07.257Z,78.63
2018-11-03T16:51:38.228Z,78.94
2018-11-03T16:54:09.087Z,78.83
2018-11-03T16:56:39.998Z,78.48
2018-11-03T16:59:10.990Z,78.34
2018-11-03T17:01:41.912Z,77.91
2018-11-03T17:04:13.954Z,77.67
2018-11-03T17:06:46.160Z,78.14
2018-11-03T17:09:17.824Z,78.12
2018-11-03T17:11:49.387Z,78.67
2018-11-03T17:14:20.628Z,78.68
2018-11-03T17:16:51.598Z,79.03
2018-11-03T17:19:22.538Z,78.90
2018-11-03T17:21:53.876Z,79.12
2018-11-03T17:24:25.444Z,78.97
2018-11-03T17:26:56.643Z,78.86
2018-11-03T17:29:27.822Z,78.61
2018-11-03T17:31:59.089Z,78.16
2018-11-03T17:34:30.226Z,78.06
2018-11-03T17:37:01.133Z,78.04
2018-11-03T17:39:32.608Z,78.02
2018-11-03T17:42:13.008Z,77.97
2018-11-03T17:44:37.792Z,77.93
2018-11-03T17:47:09.009Z,78.11
2018-11-03T17:49:40.836Z,77.66
2018-11-03T17:52:12.134Z,77.89
2018-11-03T17:54:43.421Z,78.04
2018-11-03T17:57:14.335Z,78.08
2018-11-03T17:59:45.989Z,78.17
2018-11-03T18:02:17.054Z,78.77
2018-11-03T18:04:48.430Z,78.77
2018-11-03T18:07:19.515Z,78.83
2018-11-03T18:09:51.262Z,78.69
2018-11-03T18:12:22.700Z,78.40
2018-11-03T18:14:54.422Z,78.87
2018-11-03T18:17:25.479Z,78.54
2018-11-03T18:19:56.775Z,78.33
2018-11-03T18:22:27.784Z,78.32
2018-11-03T18:24:59.082Z,78.36
2018-11-03T18:27:30.446Z,78.09
2018-11-03T18:30:01.487Z,78.14
2018-11-03T18:32:32.410Z,77.72
2018-11-03T18:35:03.456Z,77.80
2018-11-03T18:37:34.470Z,78.24
2018-11-03T18:40:05.702Z,78.30
2018-11-03T18:42:37.080Z,78.47
2018-11-03T18:45:09.080Z,78.90
2018-11-03T18:47:40.133Z,79.00
2018-11-03T18:50:15.511Z,78.33
2018-11-03T18:52:46.596Z,78.32
2018-11-03T18:55:17.856Z,78.21
2018-11-03T18:57:48.850Z,78.24
2018-11-03T19:00:20.584Z,78.33
2018-11-03T19:02:52.325Z,77.75
2018-11-03T19:05:23.510Z,78.26
2018-11-03T19:07:55.301Z,77.99
2018-11-03T19:10:26.565Z,77.99
2018-11-03T19:12:57.846Z,78.31
2018-11-03T19:15:29.293Z,78.13
2018-11-03T19:18:00.362Z,77.78
2018-11-03T19:20:31.636Z,78.02
2018-11-03T19:23:02.752Z,77.96
2018-11-03T19:25:33.725Z,77.93
2018-11-03T19:28:04.885Z,78.21
2018-11-03T19:30:36.231Z,78.43
2018-11-03T19:33:07.531Z,78.35
2018-11-03T19:35:38.928Z,78.52
2018-11-03T19:38:09.889Z,78.68
2018-11-03T19:40:40.991Z,78.63
2018-11-03T19:43:12.917Z,78.78
2018-11-03T19:45:43.888Z,78.78
2018-11-03T19:48:15.317Z,78.59
2018-11-03T19:50:46.694Z,78.77
2018-11-03T19:53:18.035Z,78.93
2018-11-03T19:55:49.399Z,79.02
2018-11-03T19:58:20.863Z,78.75
2018-11-03T20:00:51.897Z,78.74
2018-11-03T20:03:22.928Z,79.13
2018-11-03T20:05:54.295Z,78.83
2018-11-03T20:08:25.661Z,79.29
2018-11-03T20:10:56.531Z,79.27
2018-11-03T20:13:27.812Z,79.14
2018-11-03T20:15:59.139Z,79.79
2018-11-03T20:18:30.173Z,79.89
2018-11-03T20:21:01.126Z,80.21
2018-11-03T20:23:32.680Z,80.32
2018-11-03T20:26:03.732Z,80.55
2018-11-03T20:28:34.681Z,80.66
2018-11-03T20:31:06.399Z,80.89
2018-11-03T20:33:37.604Z,80.86
2018-11-03T20:36:08.548Z,81.30
2018-11-03T20:38:39.640Z,81.77
2018-11-03T20:41:10.597Z,81.93
2018-11-03T20:43:41.605Z,82.21
2018-11-03T20:46:12.933Z,82.29
2018-11-03T20:48:43.978Z,82.92
2018-11-03T20:51:14.953Z,83.29
2018-11-03T20:53:46.460Z,83.55
2018-11-03T20:56:17.526Z,83.61
2018-11-03T20:58:48.575Z,83.61
2018-11-03T21:01:19.570Z,83.58
2018-11-03T21:03:50.548Z,83.59
2018-11-03T21:06:21.491Z,83.69
2018-11-03T21:08:53.736Z,84.00
2018-11-03T21:11:25.052Z,83.87
2018-11-03T21:13:56.604Z,84.15
2018-11-03T21:16:28.332Z,84.12
2018-11-03T21:18:59.250Z,84.12
2018-11-03T21:21:30.202Z,83.92
2018-11-03T21:24:01.495Z,84.03
2018-11-03T21:26:32.985Z,84.12
2018-11-03T21:29:04.090Z,83.97
2018-11-03T21:31:35.409Z,84.09
2018-11-03T21:34:07.127Z,84.27
2018-11-03T21:36:38.149Z,84.34
2018-11-03T21:39:11.585Z,84.41
2018-11-03T21:41:42.873Z,84.23
2018-11-03T21:44:13.780Z,84.33
2018-11-03T21:46:45.179Z,84.23
2018-11-03T21:49:16.576Z,84.10
2018-11-03T21:51:47.962Z,84.07
2018-11-03T21:54:18.908Z,84.09
2018-11-03T21:56:50.162Z,83.53
2018-11-03T21:59:21.084Z,83.44
2018-11-03T22:01:52.463Z,83.76
2018-11-03T22:04:23.513Z,83.80
2018-11-03T22:06:54.842Z,83.77
2018-11-03T22:09:25.893Z,83.96
2018-11-03T22:11:57.187Z,84.18
2018-11-03T22:14:28.055Z,84.34
2018-11-03T22:16:59.106Z,84.11
2018-11-03T22:19:30.053Z,84.06
2018-11-03T22:22:01.033Z,84.08
2018-11-03T22:24:32.017Z,83.96
2018-11-03T22:27:02.904Z,83.77
2018-11-03T22:29:33.823Z,84.04
2018-11-03T22:32:05.282Z,84.10
2018-11-03T22:34:36.271Z,84.21
2018-11-03T22:37:07.277Z,83.98
2018-11-03T22:39:38.194Z,84.24
2018-11-03T22:42:09.132Z,84.68
2018-11-03T22:44:40.388Z,84.68
2018-11-03T22:47:11.316Z,84.87
2018-11-03T22:49:42.601Z,84.93
2018-11-03T22:52:13.563Z,84.93
2018-11-03T22:54:45.079Z,84.35
2018-11-03T22:57:16.272Z,84.38
2018-11-03T22:59:47.115Z,84.87
2018-11-03T23:02:18.546Z,84.79
2018-11-03T23:04:49.490Z,85.05
2018-11-03T23:07:20.871Z,85.09
2018-11-03T23:09:52.531Z,85.27
2018-11-03T23:12:23.846Z,85.26
2018-11-03T23:14:55.165Z,85.67
2018-11-03T23:17:26.523Z,85.74
2018-11-03T23:19:57.423Z,86.19
2018-11-03T23:22:28.733Z,86.18
2018-11-03T23:25:00.102Z,86.45
2018-11-03T23:27:31.388Z,86.66
2018-11-03T23:30:02.433Z,86.45
2018-11-03T23:32:33.413Z,86.44
2018-11-03T23:35:04.379Z,86.54
2018-11-03T23:37:35.313Z,86.73
2018-11-03T23:40:07.477Z,86.81
2018-11-03T23:42:38.547Z,86.59
2018-11-03T23:45:10.834Z,86.62
2018-11-03T23:47:41.772Z,86.90
2018-11-03T23:50:14.180Z,86.64
2018-11-03T23:52:46.352Z,86.47
2018-11-03T23:55:17.285Z,86.41
2018-11-03T23:57:48.187Z,86.88
